Terminal Aerodrome Forecast
Issued by NWS

Home | Current Version | Previous Version | Text Only | Print | Product List | Glossary On
Versions: 1 2 3 4 5 6 7 8 9 10 11 12 13 14 15 16
000
FTUS43 KLSX 301303 AAA
TAFUIN
TAF AMD
KUIN 301303Z 3013/3112 VRB04KT 2SM BR VV002
     FM301400 VRB05KT P6SM SCT005 BKN030
     FM301700 06006KT P6SM SCT030
     FM310100 16006KT P6SM SCT040=

USA.gov is the U.S. government's official web portal to all federal, state and local government web resources and services.